Ullapool, United Kingdom
Current Conditions -  °F | °C
As of 12:20 AM on Thursday 27 Nov 2014 (Local Time) from EGPO Reporting Station
Scattered Clouds Scattered Clouds  
Wind Chill: 40°   Ceiling: Unl
Heat Index: 45°   Visibility: 6mi
Dew Point: 39°   Wind: 8mph
Humidity: 81%   Direction: 170°S
Pressure: 29.74"   Gusts: NA
Location:  57.9°N, 5.16°W
Report Text: EGPO 270020Z AUTO 17007KT 9999 SCT022/// 07/04 Q1007
Loading
Personal Weather Stations






























Interactive Weather Map New forecast layout! Learn more

10-Day Weather Forecast

Advertisements
Track Severe Weather on mobile